Time;durP1;ratioP1;P1;durP2;ratioP2;P2;SDS_P1;SDS_P2;PMS_P1;PMS_P2;Temp;Humidity;BMP_temperature;BMP_pressure;BME280_temperature;BME280_humidity;BME280_pressure;Samples;Min_cycle;Max_cycle;Signal;HPM_P1;HPM_P2
2022/12/16 00:01:13;;;;;;;62.47;33.75;;;-0.20;99.90;;;;;;5071848;28;20340;-47
2022/12/16 00:03:40;;;;;;;67.03;34.55;;;-1.20;99.90;;;;;;5060330;28;20045;-46
2022/12/16 00:06:07;;;;;;;63.53;34.40;;;-0.90;99.90;;;;;;5071201;28;20553;-48
2022/12/16 00:08:34;;;;;;;67.63;35.47;;;-1.20;99.90;;;;;;5071193;28;20475;-44
2022/12/16 00:11:01;;;;;;;63.03;34.45;;;-1.10;99.90;;;;;;5071590;28;20033;-44
2022/12/16 00:13:29;;;;;;;67.70;36.45;;;-0.80;99.90;;;;;;5071333;28;20383;-45
2022/12/16 00:15:54;;;;;;;64.68;37.90;;;-1.10;99.90;;;;;;5053754;28;20036;-45
2022/12/16 00:18:20;;;;;;;64.20;37.65;;;-1.00;99.90;;;;;;5071491;28;20089;-45
2022/12/16 00:20:48;;;;;;;72.63;39.30;;;-1.00;99.90;;;;;;5071230;28;20522;-44
2022/12/16 00:23:15;;;;;;;72.95;39.90;;;-0.70;99.90;;;;;;5071001;28;20072;-46
2022/12/16 00:25:45;;;;;;;62.78;35.58;;;-1.10;99.90;;;;;;5071599;28;20036;-46
2022/12/16 00:28:12;;;;;;;67.80;37.63;;;-0.70;99.90;;;;;;5069955;28;20112;-44
2022/12/16 00:30:38;;;;;;;68.90;37.75;;;-0.90;99.90;;;;;;5071605;28;20435;-44
2022/12/16 00:33:04;;;;;;;71.18;38.42;;;-0.90;99.90;;;;;;5071523;28;20045;-45
2022/12/16 00:35:30;;;;;;;67.07;37.72;;;-0.80;99.90;;;;;;5050605;28;20086;-44
2022/12/16 00:37:56;;;;;;;67.78;36.20;;;-0.50;99.90;;;;;;5070015;28;20109;-45
2022/12/16 00:40:22;;;;;;;62.55;34.80;;;-0.70;99.90;;;;;;5051992;28;20036;-47
2022/12/16 00:42:47;;;;;;;67.35;37.30;;;-0.80;99.90;;;;;;5070405;28;20031;-48
2022/12/16 00:45:13;;;;;;;62.20;36.17;;;-0.70;99.90;;;;;;5071132;28;20048;-46
2022/12/16 00:47:39;;;;;;;71.28;38.60;;;-0.60;99.90;;;;;;5071055;28;20040;-44
2022/12/16 00:50:05;;;;;;;69.75;38.63;;;-0.90;99.90;;;;;;5070269;28;20511;-45
2022/12/16 00:52:31;;;;;;;67.63;38.53;;;-0.50;99.90;;;;;;5070338;28;20063;-44
2022/12/16 00:54:57;;;;;;;70.80;39.17;;;-0.80;99.90;;;;;;5071202;28;20454;-46
2022/12/16 00:57:22;;;;;;;71.78;38.33;;;-0.50;99.90;;;;;;5070420;28;20128;-44
2022/12/16 00:59:48;;;;;;;75.32;39.53;;;-0.80;99.90;;;;;;5071145;28;20040;-45
2022/12/16 01:02:14;;;;;;;65.70;39.47;;;-0.90;99.90;;;;;;5070377;28;20170;-45
2022/12/16 01:04:39;;;;;;;70.28;37.33;;;-0.90;99.90;;;;;;5070419;28;20411;-50
2022/12/16 01:07:05;;;;;;;80.22;41.42;;;-0.50;99.90;;;;;;5070175;28;20493;-44
2022/12/16 01:09:31;;;;;;;73.88;40.17;;;-0.80;99.90;;;;;;5070317;28;20508;-46
2022/12/16 01:11:56;;;;;;;68.18;40.65;;;-0.70;99.90;;;;;;5070814;28;20455;-46
2022/12/16 01:14:22;;;;;;;72.32;39.92;;;-0.50;99.90;;;;;;5035838;28;20041;-45
2022/12/16 01:16:48;;;;;;;68.55;38.72;;;-0.60;99.90;;;;;;5070633;28;20501;-44
2022/12/16 01:19:13;;;;;;;72.50;39.72;;;-0.80;99.90;;;;;;5070497;28;20037;-44
2022/12/16 01:21:39;;;;;;;67.80;37.85;;;-0.50;99.90;;;;;;5068694;28;20036;-46
2022/12/16 01:24:05;;;;;;;68.30;38.85;;;-0.20;99.90;;;;;;5069864;28;20151;-45
2022/12/16 01:26:31;;;;;;;67.20;36.08;;;-0.80;99.90;;;;;;5069119;28;20036;-45
2022/12/16 01:28:57;;;;;;;69.63;39.10;;;-0.60;99.90;;;;;;5069860;28;20391;-44
2022/12/16 01:31:23;;;;;;;69.95;39.47;;;-0.90;99.90;;;;;;5070204;28;20040;-45
2022/12/16 01:33:49;;;;;;;69.13;39.60;;;-0.50;99.90;;;;;;5070118;28;20040;-47
2022/12/16 01:36:16;;;;;;;66.85;38.65;;;-0.90;99.90;;;;;;5070538;28;21302;-43
2022/12/16 01:38:43;;;;;;;69.68;39.70;;;-0.50;99.90;;;;;;5052063;28;20418;-45
2022/12/16 01:41:10;;;;;;;67.07;37.45;;;-0.60;99.90;;;;;;5070176;28;20032;-46
2022/12/16 01:43:38;;;;;;;65.70;36.95;;;-1.00;99.90;;;;;;5069522;28;20033;-46
2022/12/16 01:46:11;;;;;;;64.95;38.60;;;-0.60;99.90;;;;;;5070117;28;20215;-45
2022/12/16 01:48:40;;;;;;;63.47;34.83;;;-1.00;99.90;;;;;;5070242;28;20111;-49
2022/12/16 01:51:31;;;;;;;69.13;37.92;;;-0.60;99.90;;;;;;5068457;28;20604;-43
2022/12/16 01:54:04;;;;;;;67.05;37.42;;;-0.80;99.90;;;;;;5070181;28;20040;-44
2022/12/16 01:56:32;;;;;;;69.05;40.15;;;-0.90;99.90;;;;;;5070016;28;20479;-46
2022/12/16 01:58:59;;;;;;;75.07;39.13;;;-0.60;99.90;;;;;;5069781;28;20044;-48
2022/12/16 02:01:25;;;;;;;73.43;39.72;;;-0.80;99.90;;;;;;5069899;28;20039;-45
2022/12/16 02:03:53;;;;;;;75.63;40.75;;;-0.50;99.90;;;;;;5069891;28;20454;-46
2022/12/16 02:06:19;;;;;;;79.30;40.60;;;-0.90;99.90;;;;;;5067093;28;20492;-45
2022/12/16 02:08:45;;;;;;;73.28;40.20;;;-0.90;99.90;;;;;;5051445;28;20467;-46
2022/12/16 02:11:23;;;;;;;67.82;38.22;;;-0.50;99.90;;;;;;5069852;28;20041;-44
2022/12/16 02:13:57;;;;;;;69.80;38.53;;;-0.80;99.90;;;;;;5051754;28;20044;-46
2022/12/16 02:16:34;;;;;;;69.15;37.28;;;-0.80;99.90;;;;;;5069960;28;20388;-44
2022/12/16 02:19:12;;;;;;;71.68;37.00;;;-1.00;99.90;;;;;;5050801;28;20045;-45
2022/12/16 02:22:02;;;;;;;68.03;38.00;;;-1.00;99.90;;;;;;5069161;28;20121;-47
2022/12/16 02:24:42;;;;;;;66.53;35.85;;;-0.50;99.90;;;;;;5069579;28;20480;-44
2022/12/16 02:27:16;;;;;;;70.07;36.30;;;-0.50;99.90;;;;;;5069349;28;20045;-45
2022/12/16 02:30:04;;;;;;;75.95;41.53;;;-0.50;99.90;;;;;;5069446;28;20040;-46
2022/12/16 02:32:37;;;;;;;64.22;37.92;;;-0.80;99.90;;;;;;5069162;28;20090;-46
2022/12/16 02:35:21;;;;;;;66.40;34.90;;;-0.70;99.90;;;;;;5069225;28;20093;-44
2022/12/16 02:38:13;;;;;;;68.40;36.92;;;-0.80;99.90;;;;;;5069214;28;20063;-43
2022/12/16 02:40:50;;;;;;;64.65;33.20;;;-0.50;99.90;;;;;;5069612;28;20052;-44
2022/12/16 02:43:53;;;;;;;67.38;36.55;;;-1.00;99.90;;;;;;5069302;28;20406;-45
2022/12/16 02:46:23;;;;;;;64.07;35.75;;;-1.00;99.90;;;;;;5068581;28;20479;-46
2022/12/16 02:48:49;;;;;;;65.35;33.35;;;-0.50;99.90;;;;;;5068832;28;20045;-48
2022/12/16 02:51:15;;;;;;;65.38;37.72;;;-0.60;99.90;;;;;;5066836;28;20049;-46
2022/12/16 02:53:43;;;;;;;69.57;35.78;;;-0.70;99.90;;;;;;5069227;28;20036;-47
2022/12/16 02:56:35;;;;;;;71.68;37.42;;;-0.90;99.90;;;;;;5069183;28;20044;-46
2022/12/16 02:59:22;;;;;;;66.43;34.15;;;-1.00;99.90;;;;;;5066567;28;20055;-47
2022/12/16 03:02:16;;;;;;;67.47;33.72;;;-1.00;99.90;;;;;;5069523;28;20037;-44
2022/12/16 03:05:00;;;;;;;62.47;34.22;;;-0.50;99.90;;;;;;5071845;28;20109;-46
2022/12/16 03:07:27;;;;;;;;;;;-0.70;99.90;;;;;;5073341;28;20041;-46
2022/12/16 03:09:55;;;;;;;61.60;31.92;;;-0.50;99.90;;;;;;5072741;28;19916;-45
2022/12/16 03:12:22;;;;;;;58.00;33.55;;;-0.50;99.90;;;;;;5072377;28;20037;-46
2022/12/16 03:14:52;;;;;;;58.42;31.08;;;-0.90;99.90;;;;;;5073005;28;20076;-44
2022/12/16 03:17:20;;;;;;;63.70;35.80;;;-0.50;99.90;;;;;;5072898;28;20068;-45
2022/12/16 03:20:01;;;;;;;64.47;33.75;;;-0.70;99.90;;;;;;5072800;28;20053;-44
2022/12/16 03:22:30;;;;;;;70.40;35.60;;;-0.70;99.90;;;;;;5037673;28;20075;-45
2022/12/16 03:24:56;;;;;;;70.45;36.28;;;-0.40;99.90;;;;;;5072298;28;20124;-47
2022/12/16 03:27:32;;;;;;;58.17;31.85;;;-0.80;99.90;;;;;;5054459;28;20119;-46
2022/12/16 03:30:08;;;;;;;59.22;33.20;;;-0.50;99.90;;;;;;5072980;28;20033;-44
2022/12/16 03:32:57;;;;;;;61.42;35.90;;;-0.50;99.90;;;;;;5054562;28;20131;-46
2022/12/16 03:35:43;;;;;;;56.83;30.92;;;-0.70;99.90;;;;;;5063566;28;20044;-48
2022/12/16 03:38:11;;;;;;;51.63;29.48;;;-0.80;99.90;;;;;;5072203;28;20047;-44
2022/12/16 03:40:38;;;;;;;51.97;28.35;;;-0.20;99.90;;;;;;5072329;28;20037;-45
2022/12/16 03:43:05;;;;;;;51.42;27.20;;;-0.20;99.90;;;;;;5072414;28;20094;-46
2022/12/16 03:45:41;;;;;;;50.88;26.55;;;-0.70;99.90;;;;;;5072132;28;20043;-47
2022/12/16 03:48:08;;;;;;;45.38;25.08;;;-0.50;99.90;;;;;;5071259;28;20039;-45
2022/12/16 03:50:36;;;;;;;44.05;24.10;;;-0.60;99.90;;;;;;5071814;28;20039;-45
2022/12/16 03:53:02;;;;;;;40.35;22.42;;;-0.40;99.90;;;;;;5071584;28;20533;-49
2022/12/16 03:55:28;;;;;;;42.03;22.08;;;-0.50;99.90;;;;;;5072402;28;20047;-44
2022/12/16 03:57:56;;;;;;;46.95;26.13;;;-0.60;99.90;;;;;;5071470;28;20036;-47
2022/12/16 04:00:22;;;;;;;46.30;26.58;;;-0.30;99.90;;;;;;5071824;28;20098;-46
2022/12/16 04:02:48;;;;;;;53.47;30.90;;;-0.60;99.90;;;;;;5071760;28;20081;-45
2022/12/16 04:05:14;;;;;;;60.10;32.25;;;-0.60;99.90;;;;;;5071617;28;20446;-46
2022/12/16 04:07:40;;;;;;;57.70;33.63;;;-0.30;99.90;;;;;;5071675;28;20392;-47
2022/12/16 04:10:06;;;;;;;56.90;31.98;;;-0.10;99.90;;;;;;5071528;28;20033;-45
2022/12/16 04:26:20;;;;;;;54.88;31.10;;;-0.10;99.90;;;;;;5070882;28;20045;-45
2022/12/16 04:28:45;;;;;;;49.85;28.73;;;-0.70;99.90;;;;;;5071055;28;20119;-44
2022/12/16 04:31:11;;;;;;;53.28;28.75;;;-0.70;99.90;;;;;;5071320;28;20064;-45
